createdAt,value
2022-09-20T00:01:26.103Z,16.81
2022-09-20T00:03:57.883Z,16.83
2022-09-20T00:06:30.175Z,16.82
2022-09-20T00:08:57.365Z,16.82
2022-09-20T00:11:27.106Z,16.81
2022-09-20T00:13:56.160Z,16.80
2022-09-20T00:16:28.387Z,16.79
2022-09-20T00:18:57.600Z,16.79
2022-09-20T00:21:29.290Z,16.77
2022-09-20T00:23:58.124Z,16.78
2022-09-20T00:26:26.279Z,16.76
2022-09-20T00:28:53.485Z,16.76
2022-09-20T00:31:20.572Z,16.74
2022-09-20T00:34:08.768Z,16.73
2022-09-20T00:36:35.300Z,16.71
2022-09-20T00:39:03.444Z,16.70
2022-09-20T00:41:31.488Z,16.67
2022-09-20T00:44:03.901Z,16.63
2022-09-20T00:46:41.569Z,16.61
2022-09-20T00:49:21.241Z,16.59
2022-09-20T00:51:52.308Z,16.57
2022-09-20T00:54:22.097Z,16.55
2022-09-20T00:56:48.771Z,16.57
2022-09-20T00:59:33.009Z,16.59
2022-09-20T01:02:09.112Z,16.61
2022-09-20T01:04:38.951Z,16.62
2022-09-20T01:07:07.981Z,16.61
2022-09-20T01:09:34.730Z,16.59
2022-09-20T01:12:06.289Z,16.55
2022-09-20T01:14:33.998Z,16.53
2022-09-20T01:17:05.396Z,16.51
2022-09-20T01:19:58.754Z,16.50
2022-09-20T01:23:04.190Z,16.47
2022-09-20T01:25:56.462Z,16.46
2022-09-20T01:28:23.771Z,16.45
2022-09-20T01:31:29.337Z,16.42
2022-09-20T01:34:02.014Z,16.41
2022-09-20T01:36:42.467Z,16.39
2022-09-20T01:39:27.207Z,16.36
2022-09-20T01:41:58.587Z,16.31
2022-09-20T01:44:33.819Z,16.29
2022-09-20T01:47:10.844Z,16.27
2022-09-20T01:50:10.929Z,16.26
2022-09-20T01:53:00.236Z,16.29
2022-09-20T01:55:48.995Z,16.28
2022-09-20T01:59:22.565Z,16.25
2022-09-20T02:02:20.232Z,16.20
2022-09-20T02:05:23.417Z,16.22
2022-09-20T02:07:55.791Z,16.20
2022-09-20T02:10:32.413Z,16.23
2022-09-20T02:13:06.564Z,16.23
2022-09-20T02:16:03.417Z,16.23
2022-09-20T02:19:07.934Z,16.25
2022-09-20T02:21:56.022Z,16.23
2022-09-20T02:24:45.476Z,16.21
2022-09-20T02:27:18.275Z,16.21
2022-09-20T02:29:52.378Z,16.19
2022-09-20T02:32:48.005Z,16.19
2022-09-20T02:35:28.959Z,16.21
2022-09-20T02:38:05.621Z,16.20
2022-09-20T02:40:50.314Z,16.19
2022-09-20T02:43:22.728Z,16.16
2022-09-20T02:46:01.468Z,16.15
2022-09-20T02:48:39.223Z,16.15
2022-09-20T02:51:19.406Z,16.16
2022-09-20T02:54:05.044Z,16.16
2022-09-20T02:56:59.371Z,16.16
2022-09-20T02:59:29.752Z,16.15
2022-09-20T03:02:24.802Z,16.14
2022-09-20T03:05:22.364Z,16.16
2022-09-20T03:08:14.743Z,16.18
2022-09-20T03:11:13.259Z,16.18
2022-09-20T03:14:00.582Z,16.19
2022-09-20T03:16:32.947Z,16.18
2022-09-20T03:19:36.314Z,16.14
2022-09-20T03:22:20.047Z,16.14
2022-09-20T03:24:56.548Z,16.12
2022-09-20T03:27:32.985Z,16.07
2022-09-20T03:30:19.778Z,16.06
2022-09-20T03:33:04.214Z,16.04
2022-09-20T03:35:37.845Z,16.04
2022-09-20T03:38:22.396Z,16.05
2022-09-20T03:41:07.757Z,16.06
2022-09-20T03:43:55.967Z,16.07
2022-09-20T03:46:29.549Z,16.07
2022-09-20T03:49:33.547Z,16.04
2022-09-20T03:52:19.156Z,16.06
2022-09-20T03:55:23.028Z,16.04
2022-09-20T03:57:49.487Z,16.06
2022-09-20T04:00:34.645Z,16.09
2022-09-20T04:03:30.614Z,16.07
2022-09-20T04:05:57.198Z,16.08
2022-09-20T04:09:01.401Z,16.06
2022-09-20T04:11:37.585Z,16.10
2022-09-20T04:14:23.795Z,16.13
2022-09-20T04:17:19.089Z,16.13
2022-09-20T04:19:52.294Z,16.13
2022-09-20T04:22:22.415Z,16.13
2022-09-20T04:25:43.760Z,16.12
2022-09-20T04:28:25.455Z,16.13
2022-09-20T04:30:59.410Z,16.13
2022-09-20T04:33:39.756Z,16.10
2022-09-20T04:36:29.553Z,16.10
2022-09-20T04:39:02.081Z,16.06
2022-09-20T04:42:09.102Z,16.04
2022-09-20T04:45:07.860Z,16.05
2022-09-20T04:47:59.146Z,16.05
2022-09-20T04:50:50.178Z,16.02
2022-09-20T04:53:53.777Z,15.97
2022-09-20T04:56:28.514Z,15.93
2022-09-20T04:59:06.464Z,15.89
2022-09-20T05:02:03.909Z,15.89
2022-09-20T05:04:55.185Z,15.89
2022-09-20T05:07:25.265Z,15.88
2022-09-20T05:10:01.203Z,15.86
2022-09-20T05:12:43.050Z,15.85
2022-09-20T05:15:36.299Z,15.82
2022-09-20T05:18:27.870Z,15.81
2022-09-20T05:21:08.185Z,15.83
2022-09-20T05:24:09.494Z,15.83
2022-09-20T05:27:03.384Z,15.81
2022-09-20T05:30:04.382Z,15.81
2022-09-20T05:32:50.628Z,15.78
2022-09-20T05:35:29.314Z,15.76
2022-09-20T05:38:04.800Z,15.73
2022-09-20T05:40:49.707Z,15.69
2022-09-20T05:43:45.312Z,15.70
2022-09-20T05:46:26.646Z,15.65
2022-09-20T05:49:04.244Z,15.62
2022-09-20T05:51:48.633Z,15.57
2022-09-20T05:54:52.597Z,15.56
2022-09-20T05:57:41.065Z,15.56
2022-09-20T06:00:18.128Z,15.52
2022-09-20T06:03:22.861Z,15.51
2022-09-20T06:06:14.455Z,15.50
2022-09-20T06:08:51.893Z,15.49
2022-09-20T06:11:38.981Z,15.47
2022-09-20T06:14:20.209Z,15.47
2022-09-20T06:17:11.869Z,15.47
2022-09-20T06:19:48.841Z,15.46
2022-09-20T06:22:37.426Z,15.48
2022-09-20T06:25:10.219Z,15.51
2022-09-20T06:27:45.390Z,15.55
2022-09-20T06:30:36.386Z,15.60
2022-09-20T06:33:05.985Z,15.67
2022-09-20T06:35:59.087Z,15.73
2022-09-20T06:38:53.473Z,15.81
2022-09-20T06:41:28.637Z,15.89
2022-09-20T06:44:01.860Z,15.95
2022-09-20T06:46:30.674Z,16.00
2022-09-20T06:48:57.863Z,16.06
2022-09-20T06:51:27.051Z,16.12
2022-09-20T06:53:57.216Z,16.16
2022-09-20T06:56:26.971Z,16.23
2022-09-20T06:58:54.430Z,16.31
2022-09-20T07:01:29.725Z,16.37
2022-09-20T07:04:01.235Z,16.44
2022-09-20T07:06:28.783Z,16.51
2022-09-20T07:08:55.459Z,16.58
2022-09-20T07:11:23.162Z,16.61
2022-09-20T07:13:56.120Z,16.65
2022-09-20T07:16:22.761Z,16.67
2022-09-20T07:18:51.975Z,16.74
2022-09-20T07:21:20.316Z,16.85
2022-09-20T07:23:51.217Z,16.99
2022-09-20T07:26:29.096Z,17.17
2022-09-20T07:28:57.400Z,17.33
2022-09-20T07:31:26.452Z,17.45
2022-09-20T07:33:55.340Z,17.57
2022-09-20T07:36:22.145Z,17.71
2022-09-20T07:38:50.743Z,17.85
2022-09-20T07:41:22.717Z,17.99
2022-09-20T07:43:50.776Z,18.15
2022-09-20T07:46:17.326Z,18.32
2022-09-20T07:48:44.139Z,18.45
2022-09-20T07:51:13.475Z,18.55
2022-09-20T07:53:44.223Z,18.65
2022-09-20T07:56:13.675Z,18.78
2022-09-20T07:58:40.983Z,18.87
2022-09-20T08:01:10.219Z,18.96
2022-09-20T08:03:42.821Z,19.07
2022-09-20T08:06:11.962Z,19.19
2022-09-20T08:08:40.574Z,19.31
2022-09-20T08:11:10.321Z,19.42
2022-09-20T08:16:31.739Z,19.61
2022-09-20T08:19:01.588Z,19.64
2022-09-20T08:21:33.222Z,19.65
2022-09-20T08:24:04.594Z,19.66
2022-09-20T08:26:31.564Z,19.68
2022-09-20T08:28:59.746Z,19.71
2022-09-20T08:31:31.587Z,19.71
2022-09-20T08:33:59.299Z,19.67
2022-09-20T08:36:26.550Z,19.64
2022-09-20T08:41:58.458Z,19.65
2022-09-20T08:44:35.659Z,19.62
2022-09-20T08:47:16.602Z,19.63
2022-09-20T08:49:46.117Z,19.63
2022-09-20T08:52:36.309Z,19.62
2022-09-20T08:55:13.522Z,19.65
2022-09-20T08:57:40.037Z,19.66
2022-09-20T09:00:07.531Z,19.69
2022-09-20T09:02:34.353Z,19.75
2022-09-20T09:05:33.377Z,19.81
2022-09-20T09:08:04.975Z,19.82
2022-09-20T09:10:42.490Z,19.84
2022-09-20T09:13:19.388Z,19.85
2022-09-20T09:15:53.461Z,19.87
2022-09-20T09:18:19.994Z,19.88
2022-09-20T09:20:47.108Z,19.86
2022-09-20T09:23:26.824Z,19.84
2022-09-20T09:25:56.577Z,19.84
2022-09-20T09:28:25.702Z,19.81
2022-09-20T09:30:52.176Z,19.80
2022-09-20T09:33:50.189Z,19.77
2022-09-20T09:36:23.496Z,19.71
2022-09-20T09:38:50.283Z,19.62
2022-09-20T09:41:32.886Z,19.51
2022-09-20T09:44:09.579Z,19.42
2022-09-20T09:46:38.390Z,19.35
2022-09-20T09:49:20.233Z,19.29
2022-09-20T09:52:13.155Z,19.20
2022-09-20T09:54:53.769Z,19.16
2022-09-20T09:57:33.018Z,19.12
2022-09-20T10:00:22.059Z,19.07
2022-09-20T10:03:04.150Z,18.99
2022-09-20T10:05:46.744Z,18.94
2022-09-20T10:08:25.095Z,18.88
2022-09-20T10:11:10.143Z,18.79
2022-09-20T10:14:05.378Z,18.74
2022-09-20T10:17:05.446Z,18.72
2022-09-20T10:19:50.392Z,18.71
2022-09-20T10:22:24.031Z,18.71
2022-09-20T10:25:11.547Z,18.71
2022-09-20T10:28:08.898Z,18.76
2022-09-20T10:30:52.402Z,18.84
2022-09-20T10:33:26.392Z,18.88
2022-09-20T10:36:18.031Z,18.93
2022-09-20T10:39:05.964Z,18.98
2022-09-20T10:42:29.287Z,19.02
2022-09-20T10:45:59.134Z,19.08
2022-09-20T10:48:33.062Z,19.10
2022-09-20T10:51:06.716Z,19.13
2022-09-20T10:53:54.911Z,19.15
2022-09-20T10:56:36.861Z,19.20
2022-09-20T10:59:22.376Z,19.27
2022-09-20T11:01:58.080Z,19.36
2022-09-20T11:04:49.868Z,19.42
2022-09-20T11:07:56.373Z,19.47
2022-09-20T11:10:25.547Z,19.56
2022-09-20T11:13:08.606Z,19.70
2022-09-20T11:15:54.441Z,19.84
2022-09-20T11:18:44.970Z,19.98
2022-09-20T11:21:27.184Z,20.10
2022-09-20T11:24:11.588Z,20.24
2022-09-20T11:26:44.755Z,20.33
2022-09-20T11:29:20.624Z,20.40
2022-09-20T11:31:50.840Z,20.40
2022-09-20T11:34:32.735Z,20.41
2022-09-20T11:37:03.036Z,20.45
2022-09-20T11:39:48.492Z,20.43
2022-09-20T11:42:20.137Z,20.39
2022-09-20T11:44:48.773Z,20.35
2022-09-20T11:47:54.980Z,20.24
2022-09-20T11:51:11.066Z,20.21
2022-09-20T11:54:01.846Z,20.22
2022-09-20T11:56:31.679Z,20.24
2022-09-20T11:59:00.802Z,20.22
2022-09-20T12:01:37.754Z,20.23
2022-09-20T12:04:34.553Z,20.27
2022-09-20T12:07:08.333Z,20.35
2022-09-20T12:09:40.506Z,20.41
2022-09-20T12:12:22.198Z,20.54
2022-09-20T12:14:58.580Z,20.65
2022-09-20T12:17:47.859Z,20.69
2022-09-20T12:20:32.750Z,20.70
2022-09-20T12:23:50.702Z,20.69
2022-09-20T12:26:23.098Z,20.69
2022-09-20T12:28:50.821Z,20.69
2022-09-20T12:31:26.081Z,20.73
2022-09-20T12:34:11.716Z,20.82
2022-09-20T12:36:46.572Z,20.93
2022-09-20T12:39:16.242Z,20.98
2022-09-20T12:41:58.444Z,21.03
2022-09-20T12:44:40.200Z,21.16
2022-09-20T12:47:18.355Z,21.36
2022-09-20T12:50:06.393Z,21.54
2022-09-20T12:52:53.738Z,21.66
2022-09-20T12:55:32.844Z,21.68
2022-09-20T12:58:14.495Z,21.69
2022-09-20T13:01:01.013Z,21.71
2022-09-20T13:03:48.147Z,21.75
2022-09-20T13:06:15.563Z,21.78
2022-09-20T13:08:43.362Z,21.77
2022-09-20T13:11:20.043Z,21.81
2022-09-20T13:13:57.537Z,21.85
2022-09-20T13:16:36.934Z,21.90
2022-09-20T13:19:16.384Z,21.93
2022-09-20T13:21:54.137Z,21.97
2022-09-20T13:24:49.907Z,22.08
2022-09-20T13:27:22.225Z,22.28
2022-09-20T13:29:49.271Z,22.46
2022-09-20T13:32:23.343Z,22.64
2022-09-20T13:35:15.407Z,22.81
2022-09-20T13:37:44.955Z,22.87
2022-09-20T13:40:50.061Z,22.82
2022-09-20T13:43:55.636Z,22.78
2022-09-20T13:46:31.334Z,22.75
2022-09-20T13:49:14.820Z,22.62
2022-09-20T13:51:41.346Z,22.53
2022-09-20T13:54:29.338Z,22.45
2022-09-20T13:57:00.804Z,22.35
2022-09-20T13:59:34.039Z,22.19
2022-09-20T14:02:01.030Z,22.02
2022-09-20T14:04:31.360Z,21.95
2022-09-20T14:07:00.564Z,21.99
2022-09-20T14:09:35.637Z,22.03
2022-09-20T14:12:04.540Z,22.11
2022-09-20T14:14:34.573Z,22.16
2022-09-20T14:17:04.255Z,22.25
2022-09-20T14:19:37.189Z,22.28
2022-09-20T14:22:05.116Z,22.28
2022-09-20T14:24:37.210Z,22.34
2022-09-20T14:27:20.194Z,22.38
2022-09-20T14:29:54.447Z,22.44
2022-09-20T14:32:28.313Z,22.50
2022-09-20T14:35:15.999Z,22.58
2022-09-20T14:37:49.525Z,22.61
2022-09-20T14:40:18.686Z,22.61
2022-09-20T14:43:06.180Z,22.58
2022-09-20T14:45:41.025Z,22.57
2022-09-20T14:48:11.306Z,22.61
2022-09-20T14:50:38.209Z,22.64
2022-09-20T14:53:12.454Z,22.59
2022-09-20T14:56:03.874Z,22.48
2022-09-20T14:58:31.150Z,22.37
2022-09-20T15:01:23.892Z,22.22
2022-09-20T15:03:53.002Z,22.16
2022-09-20T15:06:19.842Z,22.09
2022-09-20T15:08:47.004Z,22.02
2022-09-20T15:11:18.128Z,21.95
2022-09-20T15:13:46.266Z,21.91
2022-09-20T15:16:14.760Z,21.84
2022-09-20T15:18:43.305Z,21.75
2022-09-20T15:21:13.756Z,21.68
2022-09-20T15:23:44.708Z,21.61
2022-09-20T15:26:13.489Z,21.54
2022-09-20T15:28:40.281Z,21.46
2022-09-20T15:31:06.927Z,21.38
2022-09-20T15:33:37.750Z,21.31
2022-09-20T15:36:05.318Z,21.24
2022-09-20T15:38:31.889Z,21.20
2022-09-20T15:41:01.265Z,21.15
2022-09-20T15:43:43.234Z,21.05
2022-09-20T15:46:24.529Z,20.92
2022-09-20T15:48:50.994Z,20.85
2022-09-20T15:51:17.495Z,20.74
2022-09-20T15:53:56.628Z,20.66
2022-09-20T15:56:26.571Z,20.58
2022-09-20T15:59:03.814Z,20.51
2022-09-20T16:01:33.610Z,20.44
2022-09-20T16:04:04.262Z,20.40
2022-09-20T16:06:32.467Z,20.36
2022-09-20T16:08:58.989Z,20.33
2022-09-20T16:11:27.838Z,20.29
2022-09-20T16:13:59.053Z,20.24
2022-09-20T16:16:30.630Z,20.20
2022-09-20T16:19:15.619Z,20.16
2022-09-20T16:21:44.137Z,20.15
2022-09-20T16:24:16.580Z,20.12
2022-09-20T16:26:43.411Z,20.10
2022-09-20T16:29:11.565Z,20.08
2022-09-20T16:31:46.726Z,20.08
2022-09-20T16:34:19.429Z,20.03
2022-09-20T16:36:47.162Z,20.02
2022-09-20T16:39:14.873Z,20.00
2022-09-20T16:41:42.238Z,19.94
2022-09-20T16:44:10.207Z,19.86
2022-09-20T16:46:37.349Z,19.77
2022-09-20T16:49:07.192Z,19.73
2022-09-20T16:51:36.190Z,19.70
2022-09-20T16:54:13.241Z,19.66
2022-09-20T16:56:42.563Z,19.65
2022-09-20T16:59:09.290Z,19.59
2022-09-20T17:01:36.910Z,19.54
2022-09-20T17:04:08.680Z,19.49
2022-09-20T17:06:37.150Z,19.47
2022-09-20T17:09:05.468Z,19.44
2022-09-20T17:11:36.758Z,19.41
2022-09-20T17:14:09.498Z,19.39
2022-09-20T17:16:38.133Z,19.38
2022-09-20T17:19:11.048Z,19.35
2022-09-20T17:21:40.502Z,19.31
2022-09-20T17:24:13.876Z,19.27
2022-09-20T17:26:44.375Z,19.22
2022-09-20T17:29:13.886Z,19.16
2022-09-20T17:31:42.348Z,19.10
2022-09-20T17:34:15.107Z,19.03
2022-09-20T17:36:44.168Z,18.96
2022-09-20T17:39:12.900Z,18.89
2022-09-20T17:41:41.064Z,18.83
2022-09-20T17:44:09.940Z,18.78
2022-09-20T17:46:38.601Z,18.73
2022-09-20T17:49:07.691Z,18.69
2022-09-20T17:51:42.635Z,18.62
2022-09-20T17:54:14.432Z,18.54
2022-09-20T17:56:52.225Z,18.47
2022-09-20T17:59:19.838Z,18.39
2022-09-20T18:01:49.268Z,18.31
2022-09-20T18:04:17.659Z,18.23
2022-09-20T18:06:49.916Z,18.15
2022-09-20T18:09:26.989Z,18.10
2022-09-20T18:11:55.307Z,18.04
2022-09-20T18:14:25.564Z,17.96
2022-09-20T18:16:57.910Z,17.93
2022-09-20T18:19:24.565Z,17.87
2022-09-20T18:21:51.139Z,17.83
2022-09-20T18:24:20.791Z,17.79
2022-09-20T18:26:47.322Z,17.76
2022-09-20T18:29:18.131Z,17.72
2022-09-20T18:31:52.083Z,17.67
2022-09-20T18:34:23.060Z,17.62
2022-09-20T18:36:54.890Z,17.55
2022-09-20T18:39:26.537Z,17.48
2022-09-20T18:41:53.965Z,17.44
2022-09-20T18:44:23.014Z,17.40
2022-09-20T18:46:53.306Z,17.35
2022-09-20T18:49:21.425Z,17.30
2022-09-20T18:51:48.880Z,17.22
2022-09-20T18:54:17.860Z,17.14
2022-09-20T18:56:46.380Z,17.09
2022-09-20T18:59:16.111Z,17.02
2022-09-20T19:01:59.559Z,16.96
2022-09-20T19:04:32.010Z,16.90
2022-09-20T19:07:29.289Z,16.84
2022-09-20T19:10:13.525Z,16.80
2022-09-20T19:12:46.504Z,16.78
2022-09-20T19:15:44.141Z,16.74
2022-09-20T19:18:23.595Z,16.73
2022-09-20T19:21:01.131Z,16.68
2022-09-20T19:23:45.337Z,16.64
2022-09-20T19:26:26.770Z,16.60
2022-09-20T19:28:57.012Z,16.57
2022-09-20T19:31:25.321Z,16.52
2022-09-20T19:33:57.376Z,16.47
2022-09-20T19:36:28.776Z,16.43
2022-09-20T19:39:10.005Z,16.40
2022-09-20T19:42:14.694Z,16.34
2022-09-20T19:45:22.882Z,16.30
2022-09-20T19:48:13.170Z,16.25
2022-09-20T19:50:57.331Z,16.21
2022-09-20T19:56:25.303Z,16.13
2022-09-20T19:58:56.072Z,16.12
2022-09-20T20:01:24.687Z,16.13
2022-09-20T20:03:55.071Z,16.14
2022-09-20T20:06:34.406Z,16.17
2022-09-20T20:09:08.494Z,16.21
2022-09-20T20:12:00.335Z,16.21
2022-09-20T20:14:53.441Z,16.25
2022-09-20T20:17:38.162Z,16.26
2022-09-20T20:20:32.079Z,16.25
2022-09-20T20:26:03.092Z,16.24
2022-09-20T20:28:30.527Z,16.23
2022-09-20T20:31:02.156Z,16.21
2022-09-20T20:33:54.162Z,16.19
2022-09-20T20:36:20.666Z,16.20
2022-09-20T20:38:50.133Z,16.14
2022-09-20T20:41:18.716Z,16.11
2022-09-20T20:43:56.236Z,16.04
2022-09-20T20:46:23.752Z,15.97
2022-09-20T20:48:50.444Z,15.94
2022-09-20T20:51:19.553Z,15.92
2022-09-20T20:53:50.117Z,15.91
2022-09-20T20:56:19.245Z,15.88
2022-09-20T20:58:47.375Z,15.88
2022-09-20T21:01:13.947Z,15.87
2022-09-20T21:03:42.997Z,15.84
2022-09-20T21:06:10.298Z,15.82
2022-09-20T21:08:39.533Z,15.80
2022-09-20T21:11:09.378Z,15.79
2022-09-20T21:13:40.166Z,15.78
2022-09-20T21:16:15.817Z,15.76
2022-09-20T21:18:44.122Z,15.75
2022-09-20T21:21:22.443Z,15.72
2022-09-20T21:23:53.351Z,15.71
2022-09-20T21:26:21.249Z,15.67
2022-09-20T21:28:53.672Z,15.58
2022-09-20T21:31:22.479Z,15.52
2022-09-20T21:33:53.374Z,15.46
2022-09-20T21:36:22.429Z,15.44
2022-09-20T21:38:49.438Z,15.43
2022-09-20T21:41:24.537Z,15.43
2022-09-20T21:43:57.528Z,15.42
2022-09-20T21:46:31.193Z,15.43
2022-09-20T21:48:59.588Z,15.42
2022-09-20T21:51:30.989Z,15.42
2022-09-20T21:53:59.415Z,15.41
2022-09-20T21:56:27.965Z,15.41
2022-09-20T21:58:55.135Z,15.42
2022-09-20T22:01:23.946Z,15.43
2022-09-20T22:03:59.053Z,15.44
2022-09-20T22:06:33.907Z,15.45
2022-09-20T22:09:03.259Z,15.47
2022-09-20T22:11:32.347Z,15.48
2022-09-20T22:14:02.197Z,15.50
2022-09-20T22:16:34.057Z,15.52
2022-09-20T22:19:00.932Z,15.53
2022-09-20T22:21:30.027Z,15.49
2022-09-20T22:24:03.566Z,15.46
2022-09-20T22:26:34.115Z,15.44
2022-09-20T22:29:00.764Z,15.42
2022-09-20T22:31:32.449Z,15.39
2022-09-20T22:34:04.463Z,15.37
2022-09-20T22:36:36.543Z,15.35
2022-09-20T22:39:04.984Z,15.37
2022-09-20T22:41:31.699Z,15.39
2022-09-20T22:43:58.332Z,15.43
2022-09-20T22:46:27.681Z,15.45
2022-09-20T22:48:54.503Z,15.49
2022-09-20T22:51:28.757Z,15.52
2022-09-20T22:53:57.128Z,15.55
2022-09-20T22:56:29.509Z,15.56
2022-09-20T22:59:03.486Z,15.56
2022-09-20T23:01:32.530Z,15.56
2022-09-20T23:04:09.958Z,15.55
2022-09-20T23:06:44.205Z,15.56
2022-09-20T23:09:13.078Z,15.55
2022-09-20T23:11:44.714Z,15.56
2022-09-20T23:14:20.377Z,15.58
2022-09-20T23:16:47.980Z,15.60
2022-09-20T23:19:15.011Z,15.59
2022-09-20T23:21:43.577Z,15.54
2022-09-20T23:24:14.328Z,15.51
2022-09-20T23:26:42.421Z,15.50
2022-09-20T23:29:12.040Z,15.53
2022-09-20T23:31:45.542Z,15.54
2022-09-20T23:34:14.320Z,15.57
2022-09-20T23:36:42.757Z,15.59
2022-09-20T23:39:10.639Z,15.60
2022-09-20T23:41:38.128Z,15.60
2022-09-20T23:44:06.816Z,15.58
2022-09-20T23:46:34.156Z,15.58
2022-09-20T23:49:00.792Z,15.59
2022-09-20T23:51:28.976Z,15.60
2022-09-20T23:53:58.461Z,15.61
2022-09-20T23:56:25.480Z,15.63
2022-09-20T23:58:52.325Z,15.64
